Time;durP1;ratioP1;P1;durP2;ratioP2;P2;SDS_P1;SDS_P2;PMS_P1;PMS_P2;Temp;Humidity;BMP_temperature;BMP_pressure;BME280_temperature;BME280_humidity;BME280_pressure;Samples;Min_cycle;Max_cycle;Signal;HPM_P1;HPM_P2
2021/10/13 00:00:08;;;;;;;0.10;0.10;;;;;;;;;;4826485;29;20443;-87
2021/10/13 00:02:34;;;;;;;0.10;0.10;;;;;;;;;;4796376;29;20054;-88
2021/10/13 00:05:00;;;;;;;0.10;0.10;;;;;;;;;;4826269;29;20049;-88
2021/10/13 00:07:26;;;;;;;0.10;0.10;;;;;;;;;;4811282;29;20046;-88
2021/10/13 00:09:52;;;;;;;0.10;0.10;;;;;;;;;;4811203;29;20050;-88
2021/10/13 00:12:18;;;;;;;0.10;0.10;;;;;;;;;;4811047;29;20050;-88
2021/10/13 00:14:44;;;;;;;0.10;0.10;;;;;;;;;;4811128;29;20529;-88
2021/10/13 00:17:10;;;;;;;0.10;0.10;;;;;;;;;;4810927;29;20073;-88
2021/10/13 00:19:36;;;;;;;0.10;0.10;;;;;;;;;;4811120;29;20125;-88
2021/10/13 00:22:02;;;;;;;0.10;0.10;;;;;;;;;;4796182;29;20049;-88
2021/10/13 00:24:28;;;;;;;0.10;0.10;;;;;;;;;;4825944;29;20050;-88
2021/10/13 00:26:54;;;;;;;0.10;0.10;;;;;;;;;;4825880;29;20057;-88
2021/10/13 00:29:20;;;;;;;0.10;0.10;;;;;;;;;;4825672;29;20470;-88
2021/10/13 00:31:46;;;;;;;0.10;0.10;;;;;;;;;;4810653;29;20186;-88
2021/10/13 00:34:14;;;;;;;0.10;0.10;;;;;;;;;;4810892;29;20132;-88
2021/10/13 00:36:40;;;;;;;0.10;0.10;;;;;;;;;;4810953;29;20046;-88
2021/10/13 00:39:06;;;;;;;0.10;0.10;;;;;;;;;;4810764;29;20049;-88
2021/10/13 00:41:32;;;;;;;0.10;0.10;;;;;;;;;;4826061;29;20379;-88
2021/10/13 00:43:58;;;;;;;0.10;0.10;;;;;;;;;;4810639;29;20046;-88
2021/10/13 00:46:24;;;;;;;0.10;0.10;;;;;;;;;;4825491;29;20547;-88
2021/10/13 00:48:50;;;;;;;0.10;0.10;;;;;;;;;;4825586;29;20487;-88
2021/10/13 00:51:16;;;;;;;0.10;0.10;;;;;;;;;;4810413;29;20045;-88
2021/10/13 00:53:42;;;;;;;0.10;0.10;;;;;;;;;;4810347;29;20045;-88
2021/10/13 00:56:08;;;;;;;0.10;0.10;;;;;;;;;;4810329;29;20046;-88
2021/10/13 00:58:47;;;;;;;0.10;0.10;;;;;;;;;;5151047;27;20450;-88
2021/10/13 01:01:31;;;;;;;0.10;0.10;;;;;;;;;;5149811;27;20047;-87
2021/10/13 01:04:07;;;;;;;0.10;0.10;;;;;;;;;;5149866;27;20042;-88
2021/10/13 01:06:36;;;;;;;0.10;0.10;;;;;;;;;;5149848;27;20039;-88
2021/10/13 01:09:07;;;;;;;0.10;0.10;;;;;;;;;;5149752;27;20382;-88
2021/10/13 01:11:38;;;;;;;0.10;0.10;;;;;;;;;;5132405;27;20041;-88
2021/10/13 01:14:10;;;;;;;0.10;0.10;;;;;;;;;;5115377;27;20140;-88
2021/10/13 01:16:44;;;;;;;0.10;0.10;;;;;;;;;;5149420;27;20111;-88
2021/10/13 01:19:20;;;;;;;0.10;0.10;;;;;;;;;;5132762;27;20043;-88
2021/10/13 01:22:01;;;;;;;0.10;0.10;;;;;;;;;;5115154;27;20031;-88
2021/10/13 01:24:47;;;;;;;0.10;0.10;;;;;;;;;;5132009;27;20039;-88
2021/10/13 01:27:32;;;;;;;0.10;0.10;;;;;;;;;;5148948;27;20039;-88
2021/10/13 01:29:58;;;;;;;0.10;0.10;;;;;;;;;;5149304;27;20111;-87
2021/10/13 01:32:28;;;;;;;0.10;0.10;;;;;;;;;;5131819;27;20092;-88
2021/10/13 01:34:55;;;;;;;0.10;0.10;;;;;;;;;;5131900;27;20402;-88
2021/10/13 01:37:21;;;;;;;0.10;0.10;;;;;;;;;;5131885;27;20072;-88
2021/10/13 01:39:53;;;;;;;0.10;0.10;;;;;;;;;;5131858;27;20035;-87
2021/10/13 01:42:19;;;;;;;0.10;0.10;;;;;;;;;;5114704;27;20420;-88
2021/10/13 01:44:48;;;;;;;0.10;0.10;;;;;;;;;;5131432;27;20042;-88
2021/10/13 01:47:15;;;;;;;0.10;0.10;;;;;;;;;;5131650;27;20043;-88
2021/10/13 01:49:41;;;;;;;0.10;0.10;;;;;;;;;;5131774;27;20039;-88
2021/10/13 01:52:07;;;;;;;0.10;0.10;;;;;;;;;;5131649;27;20043;-88
2021/10/13 01:54:33;;;;;;;0.10;0.10;;;;;;;;;;5131482;27;20039;-88
2021/10/13 01:56:59;;;;;;;0.10;0.10;;;;;;;;;;5131150;27;20134;-88
2021/10/13 01:59:25;;;;;;;0.10;0.10;;;;;;;;;;5131642;27;20330;-87
2021/10/13 02:01:52;;;;;;;0.10;0.10;;;;;;;;;;5131354;27;20031;-88
2021/10/13 02:04:17;;;;;;;0.10;0.10;;;;;;;;;;5131303;27;20121;-88
2021/10/13 02:06:44;;;;;;;0.10;0.10;;;;;;;;;;5114247;27;20074;-88
2021/10/13 02:09:10;;;;;;;0.10;0.10;;;;;;;;;;5123451;27;20043;-88
2021/10/13 02:11:36;;;;;;;0.10;0.10;;;;;;;;;;5100513;27;20446;-87
2021/10/13 02:14:08;;;;;;;0.10;0.10;;;;;;;;;;5117575;27;20039;-88
2021/10/13 02:16:34;;;;;;;0.10;0.10;;;;;;;;;;5117429;27;20077;-89
2021/10/13 02:19:04;;;;;;;0.10;0.10;;;;;;;;;;5117362;27;20035;-88
2021/10/13 02:21:30;;;;;;;0.10;0.10;;;;;;;;;;5134456;27;20070;-88
2021/10/13 02:23:58;;;;;;;0.10;0.10;;;;;;;;;;5117366;27;20539;-88
2021/10/13 02:26:25;;;;;;;0.10;0.10;;;;;;;;;;5117334;27;20035;-89
2021/10/13 02:28:52;;;;;;;0.10;0.10;;;;;;;;;;5117226;27;20096;-88
2021/10/13 02:31:18;;;;;;;0.10;0.10;;;;;;;;;;5117274;27;20070;-88
2021/10/13 02:33:43;;;;;;;0.10;0.10;;;;;;;;;;5116973;27;20455;-88
2021/10/13 02:36:09;;;;;;;0.10;0.10;;;;;;;;;;5116875;27;20039;-88
2021/10/13 02:38:35;;;;;;;0.10;0.10;;;;;;;;;;5117009;27;20039;-89
2021/10/13 02:41:01;;;;;;;0.10;0.10;;;;;;;;;;5100416;27;20510;-88
2021/10/13 02:43:27;;;;;;;0.10;0.10;;;;;;;;;;5133885;27;20080;-88
2021/10/13 02:45:59;;;;;;;0.10;0.10;;;;;;;;;;5116762;27;20379;-87
2021/10/13 02:48:26;;;;;;;0.10;0.10;;;;;;;;;;5099977;27;20106;-88
2021/10/13 02:50:56;;;;;;;0.10;0.10;;;;;;;;;;5134067;27;20125;-88
2021/10/13 02:53:26;;;;;;;0.10;0.10;;;;;;;;;;5116586;27;20050;-89
2021/10/13 02:55:53;;;;;;;0.10;0.10;;;;;;;;;;5117051;27;20107;-88
2021/10/13 02:58:22;;;;;;;0.10;0.10;;;;;;;;;;5116425;27;20139;-89
2021/10/13 03:00:49;;;;;;;0.10;0.10;;;;;;;;;;5099778;27;20043;-88
2021/10/13 03:03:17;;;;;;;0.10;0.10;;;;;;;;;;5116822;27;20039;-88
2021/10/13 03:05:43;;;;;;;0.10;0.10;;;;;;;;;;5116827;27;20038;-88
2021/10/13 03:08:09;;;;;;;0.10;0.10;;;;;;;;;;5116768;27;20047;-88
2021/10/13 03:10:35;;;;;;;0.10;0.10;;;;;;;;;;5116541;27;20039;-88
2021/10/13 03:13:01;;;;;;;0.10;0.10;;;;;;;;;;5116610;27;20050;-88
2021/10/13 03:15:27;;;;;;;0.10;0.10;;;;;;;;;;5116087;27;20039;-88
2021/10/13 03:17:54;;;;;;;0.10;0.10;;;;;;;;;;5116426;27;20039;-88
2021/10/13 03:20:20;;;;;;;0.10;0.10;;;;;;;;;;5115384;28;20054;-88
2021/10/13 03:22:46;;;;;;;0.10;0.10;;;;;;;;;;5116465;27;20047;-89
2021/10/13 03:25:12;;;;;;;0.10;0.10;;;;;;;;;;5116325;27;20463;-88
2021/10/13 03:27:38;;;;;;;0.10;0.10;;;;;;;;;;5115990;27;20443;-88
2021/10/13 03:30:05;;;;;;;0.10;0.10;;;;;;;;;;5098936;27;20062;-88
2021/10/13 03:32:31;;;;;;;0.10;0.10;;;;;;;;;;5098897;27;20051;-88
2021/10/13 03:34:57;;;;;;;0.10;0.10;;;;;;;;;;5098848;27;20046;-89
2021/10/13 03:37:23;;;;;;;0.10;0.10;;;;;;;;;;5115976;27;20043;-88
2021/10/13 03:39:50;;;;;;;0.10;0.10;;;;;;;;;;5115899;27;20240;-88
2021/10/13 03:42:16;;;;;;;0.10;0.10;;;;;;;;;;5098942;27;20402;-88
2021/10/13 03:44:42;;;;;;;0.10;0.10;;;;;;;;;;5132751;27;20039;-89
2021/10/13 03:47:08;;;;;;;0.10;0.10;;;;;;;;;;5098703;27;20133;-88
2021/10/13 03:49:35;;;;;;;0.10;0.10;;;;;;;;;;5115459;27;20490;-88
2021/10/13 03:52:01;;;;;;;0.10;0.10;;;;;;;;;;5098672;27;20126;-89
2021/10/13 03:54:27;;;;;;;0.10;0.10;;;;;;;;;;5115474;27;20464;-88
2021/10/13 03:56:53;;;;;;;0.10;0.10;;;;;;;;;;5098424;27;20462;-88
2021/10/13 03:59:19;;;;;;;0.10;0.10;;;;;;;;;;5132715;27;20047;-89
2021/10/13 04:01:45;;;;;;;0.10;0.10;;;;;;;;;;5115805;27;20039;-88
2021/10/13 04:04:11;;;;;;;0.10;0.10;;;;;;;;;;5132536;27;20095;-89
2021/10/13 04:06:37;;;;;;;0.10;0.10;;;;;;;;;;5115249;27;20179;-88
2021/10/13 04:09:04;;;;;;;0.10;0.10;;;;;;;;;;5132187;27;20050;-88
2021/10/13 04:11:30;;;;;;;0.10;0.10;;;;;;;;;;5115528;27;20122;-88
2021/10/13 04:13:56;;;;;;;0.10;0.10;;;;;;;;;;5115246;27;20141;-89
2021/10/13 04:16:22;;;;;;;0.10;0.10;;;;;;;;;;5114951;27;20116;-88
2021/10/13 04:18:48;;;;;;;0.10;0.10;;;;;;;;;;5115178;27;20040;-88
2021/10/13 04:21:14;;;;;;;0.10;0.10;;;;;;;;;;5115055;27;20088;-88
2021/10/13 04:23:40;;;;;;;0.10;0.10;;;;;;;;;;5114881;27;20031;-89
2021/10/13 04:26:06;;;;;;;0.10;0.10;;;;;;;;;;5131896;27;20074;-88
2021/10/13 04:28:32;;;;;;;0.20;0.20;;;;;;;;;;5114861;27;20039;-87
2021/10/13 04:30:58;;;;;;;0.10;0.10;;;;;;;;;;5114878;27;20088;-88
2021/10/13 04:33:24;;;;;;;0.10;0.10;;;;;;;;;;5097935;27;20039;-88
2021/10/13 04:35:50;;;;;;;0.10;0.10;;;;;;;;;;5115039;27;20039;-88
2021/10/13 04:38:16;;;;;;;0.10;0.10;;;;;;;;;;5114663;27;20043;-88
2021/10/13 04:40:42;;;;;;;0.10;0.10;;;;;;;;;;5131952;27;20039;-89
2021/10/13 04:43:08;;;;;;;0.10;0.10;;;;;;;;;;5114735;27;20053;-88
2021/10/13 04:45:34;;;;;;;0.10;0.10;;;;;;;;;;5114792;28;20106;-88
2021/10/13 04:48:00;;;;;;;0.10;0.10;;;;;;;;;;5114476;27;20051;-89
2021/10/13 04:50:26;;;;;;;0.10;0.10;;;;;;;;;;5131814;27;20074;-88
2021/10/13 04:52:52;;;;;;;0.10;0.10;;;;;;;;;;5131887;27;20076;-88
2021/10/13 04:55:18;;;;;;;0.10;0.10;;;;;;;;;;5114419;28;20050;-88
2021/10/13 04:57:44;;;;;;;0.10;0.10;;;;;;;;;;5131446;27;20051;-88
2021/10/13 05:00:10;;;;;;;0.10;0.10;;;;;;;;;;5114717;28;20047;-89
2021/10/13 05:02:36;;;;;;;0.10;0.10;;;;;;;;;;5114909;27;20518;-89
2021/10/13 05:05:02;;;;;;;0.10;0.10;;;;;;;;;;5131468;27;20082;-88
2021/10/13 05:07:28;;;;;;;0.10;0.10;;;;;;;;;;5114519;28;20050;-88
2021/10/13 05:09:54;;;;;;;0.10;0.10;;;;;;;;;;5114664;28;20092;-89
2021/10/13 05:12:20;;;;;;;0.10;0.10;;;;;;;;;;5114594;28;20043;-89
2021/10/13 05:14:46;;;;;;;0.10;0.10;;;;;;;;;;5114697;28;20254;-89
2021/10/13 05:17:11;;;;;;;0.10;0.10;;;;;;;;;;5114199;27;20047;-89
2021/10/13 05:19:37;;;;;;;0.10;0.10;;;;;;;;;;5114456;28;20031;-89
2021/10/13 05:22:04;;;;;;;0.10;0.10;;;;;;;;;;5114769;28;20386;-89
2021/10/13 05:24:29;;;;;;;0.10;0.10;;;;;;;;;;5131263;28;20065;-89
2021/10/13 05:26:56;;;;;;;0.10;0.10;;;;;;;;;;5114528;28;20486;-88
2021/10/13 05:29:22;;;;;;;0.10;0.10;;;;;;;;;;5114649;28;20047;-88
2021/10/13 05:31:48;;;;;;;0.10;0.10;;;;;;;;;;5131305;28;20167;-89
2021/10/13 05:34:14;;;;;;;0.10;0.10;;;;;;;;;;5114632;28;20142;-89
2021/10/13 05:36:40;;;;;;;0.10;0.10;;;;;;;;;;5114150;28;20046;-88
2021/10/13 05:39:06;;;;;;;0.10;0.10;;;;;;;;;;5097353;28;20089;-88
2021/10/13 05:41:31;;;;;;;0.10;0.10;;;;;;;;;;5114232;28;20068;-88
2021/10/13 05:43:57;;;;;;;0.10;0.10;;;;;;;;;;5115463;27;20039;-89
2021/10/13 05:46:23;;;;;;;0.10;0.10;;;;;;;;;;5118439;27;20042;-89
2021/10/13 05:48:49;;;;;;;0.10;0.10;;;;;;;;;;5118026;27;20050;-88
2021/10/13 05:51:15;;;;;;;0.10;0.10;;;;;;;;;;5135132;27;20039;-89
2021/10/13 05:53:41;;;;;;;0.10;0.10;;;;;;;;;;5100907;27;20076;-89
2021/10/13 05:56:07;;;;;;;0.10;0.10;;;;;;;;;;5134997;27;20390;-88
2021/10/13 05:58:33;;;;;;;0.10;0.10;;;;;;;;;;5117766;27;20053;-88
2021/10/13 06:00:59;;;;;;;0.10;0.10;;;;;;;;;;5117958;27;20054;-88
2021/10/13 06:03:25;;;;;;;0.10;0.10;;;;;;;;;;5117871;27;20043;-89
2021/10/13 06:05:51;;;;;;;0.10;0.10;;;;;;;;;;5135019;27;20089;-88
2021/10/13 06:08:17;;;;;;;0.10;0.10;;;;;;;;;;5117974;27;20403;-88
2021/10/13 06:10:43;;;;;;;0.10;0.10;;;;;;;;;;5117852;27;20070;-88
2021/10/13 06:13:09;;;;;;;0.10;0.10;;;;;;;;;;5117486;27;20047;-88
2021/10/13 06:15:35;;;;;;;0.10;0.10;;;;;;;;;;5134677;27;20082;-88
2021/10/13 06:18:05;;;;;;;0.10;0.10;;;;;;;;;;5134514;27;20035;-89
2021/10/13 06:20:31;;;;;;;0.10;0.10;;;;;;;;;;5117522;27;20039;-89
2021/10/13 06:22:57;;;;;;;0.10;0.10;;;;;;;;;;5117621;27;20394;-88
2021/10/13 06:25:23;;;;;;;0.10;0.10;;;;;;;;;;5117592;27;20038;-88
2021/10/13 06:27:49;;;;;;;0.10;0.10;;;;;;;;;;5117354;27;20035;-88
2021/10/13 06:30:15;;;;;;;0.10;0.10;;;;;;;;;;5100220;27;20475;-88
2021/10/13 06:32:41;;;;;;;0.10;0.10;;;;;;;;;;5117349;27;20039;-89
2021/10/13 06:35:08;;;;;;;0.10;0.10;;;;;;;;;;5134153;27;20466;-89
2021/10/13 06:37:34;;;;;;;0.10;0.10;;;;;;;;;;5117193;27;20130;-88
2021/10/13 06:39:59;;;;;;;0.10;0.10;;;;;;;;;;5117203;27;20184;-89
2021/10/13 06:42:25;;;;;;;0.10;0.10;;;;;;;;;;5117302;27;20046;-88
2021/10/13 06:44:51;;;;;;;0.10;0.10;;;;;;;;;;5116832;27;20042;-88
2021/10/13 06:47:17;;;;;;;0.10;0.10;;;;;;;;;;5116875;27;20122;-88
2021/10/13 06:49:43;;;;;;;0.10;0.10;;;;;;;;;;5116736;27;20043;-88
2021/10/13 06:52:09;;;;;;;0.10;0.10;;;;;;;;;;5133773;27;20039;-88
2021/10/13 06:54:35;;;;;;;0.55;0.55;;;;;;;;;;5133602;27;20043;-89
2021/10/13 06:57:01;;;;;;;0.10;0.10;;;;;;;;;;5116363;27;20047;-89
2021/10/13 06:59:27;;;;;;;0.10;0.10;;;;;;;;;;5134018;27;20042;-88
2021/10/13 07:01:53;;;;;;;0.10;0.10;;;;;;;;;;5133842;27;20042;-88
2021/10/13 07:04:19;;;;;;;0.10;0.10;;;;;;;;;;5133630;27;20079;-87
2021/10/13 07:06:45;;;;;;;0.10;0.10;;;;;;;;;;5133792;27;20039;-88
2021/10/13 07:09:11;;;;;;;0.10;0.10;;;;;;;;;;5116544;27;20069;-88
2021/10/13 07:11:37;;;;;;;0.10;0.10;;;;;;;;;;5133467;27;20042;-88
2021/10/13 07:14:06;;;;;;;0.10;0.10;;;;;;;;;;5116423;27;20039;-89
2021/10/13 07:16:31;;;;;;;0.10;0.10;;;;;;;;;;5116270;27;20046;-88
2021/10/13 07:18:57;;;;;;;0.10;0.10;;;;;;;;;;5116463;27;20047;-88
2021/10/13 07:21:23;;;;;;;0.10;0.10;;;;;;;;;;5099517;27;20035;-89
2021/10/13 07:23:49;;;;;;;0.10;0.10;;;;;;;;;;5116380;27;20150;-89
2021/10/13 07:26:15;;;;;;;0.10;0.10;;;;;;;;;;5099377;27;20043;-88
2021/10/13 07:28:42;;;;;;;0.10;0.10;;;;;;;;;;5099224;27;20046;-88
2021/10/13 07:31:08;;;;;;;0.10;0.10;;;;;;;;;;5099192;27;20394;-88
2021/10/13 07:33:34;;;;;;;0.00;0.00;;;;;;;;;;5116288;27;20091;-88
2021/10/13 07:36:00;;;;;;;0.00;0.00;;;;;;;;;;5133367;27;20482;-89
2021/10/13 07:38:27;;;;;;;0.08;0.08;;;;;;;;;;5124433;27;20464;-89
2021/10/13 07:40:53;;;;;;;0.10;0.10;;;;;;;;;;5143373;27;20129;-88
2021/10/13 07:43:19;;;;;;;0.10;0.10;;;;;;;;;;5110397;27;20050;-88
2021/10/13 07:45:45;;;;;;;0.10;0.10;;;;;;;;;;5151462;27;20031;-88
2021/10/13 07:48:11;;;;;;;0.10;0.10;;;;;;;;;;5158313;27;20046;-88
2021/10/13 07:50:37;;;;;;;0.10;0.10;;;;;;;;;;5139921;27;20082;-89
2021/10/13 07:53:04;;;;;;;0.10;0.10;;;;;;;;;;5132869;27;20046;-89
2021/10/13 07:55:30;;;;;;;0.10;0.10;;;;;;;;;;5099002;27;20061;-88
2021/10/13 07:57:56;;;;;;;0.20;0.20;;;;;;;;;;5132385;27;20054;-89
2021/10/13 08:00:22;;;;;;;0.10;0.10;;;;;;;;;;5132802;27;20035;-88
2021/10/13 08:02:48;;;;;;;0.10;0.10;;;;;;;;;;5115467;27;20071;-88
2021/10/13 08:05:16;;;;;;;0.10;0.10;;;;;;;;;;5098430;27;20031;-88
2021/10/13 08:07:42;;;;;;;0.10;0.10;;;;;;;;;;5098196;27;20043;-88
2021/10/13 08:10:10;;;;;;;0.10;0.10;;;;;;;;;;5132206;27;20077;-89
2021/10/13 08:12:36;;;;;;;0.10;0.10;;;;;;;;;;5098319;27;20074;-89
2021/10/13 08:15:02;;;;;;;0.10;0.10;;;;;;;;;;5132591;27;20039;-89
2021/10/13 08:17:28;;;;;;;0.10;0.10;;;;;;;;;;5114938;27;20039;-88
2021/10/13 08:19:54;;;;;;;0.10;0.10;;;;;;;;;;5132177;27;20038;-88
2021/10/13 08:22:21;;;;;;;0.10;0.10;;;;;;;;;;5115365;27;20394;-88
2021/10/13 08:24:47;;;;;;;0.10;0.10;;;;;;;;;;5115072;27;20039;-89
2021/10/13 08:27:13;;;;;;;0.30;0.30;;;;;;;;;;5132199;27;20046;-88
2021/10/13 08:29:39;;;;;;;0.10;0.10;;;;;;;;;;5098157;27;20513;-89
2021/10/13 08:32:05;;;;;;;0.10;0.10;;;;;;;;;;5115234;27;20386;-89
2021/10/13 08:34:31;;;;;;;0.10;0.10;;;;;;;;;;5115382;27;20367;-89
2021/10/13 08:36:57;;;;;;;0.10;0.10;;;;;;;;;;5132020;27;20043;-88
2021/10/13 08:39:23;;;;;;;0.10;0.10;;;;;;;;;;5097997;27;20039;-88
2021/10/13 08:41:49;;;;;;;0.10;0.10;;;;;;;;;;5114880;27;20035;-88
2021/10/13 08:44:15;;;;;;;0.10;0.10;;;;;;;;;;5131832;27;20121;-88
2021/10/13 08:46:41;;;;;;;0.10;0.10;;;;;;;;;;5131809;27;20038;-88
2021/10/13 08:49:07;;;;;;;0.10;0.10;;;;;;;;;;5114714;27;20043;-88
2021/10/13 08:51:34;;;;;;;0.10;0.10;;;;;;;;;;5115213;27;20031;-88
2021/10/13 08:54:00;;;;;;;0.10;0.10;;;;;;;;;;5114527;27;20295;-88
2021/10/13 08:56:26;;;;;;;0.10;0.10;;;;;;;;;;5131451;27;20311;-88
2021/10/13 08:58:52;;;;;;;0.10;0.10;;;;;;;;;;5131490;27;20043;-88
2021/10/13 09:01:18;;;;;;;0.10;0.10;;;;;;;;;;5114560;28;20035;-88
2021/10/13 09:03:44;;;;;;;0.10;0.10;;;;;;;;;;5131628;28;20083;-88
2021/10/13 09:06:13;;;;;;;0.10;0.10;;;;;;;;;;5114918;28;20066;-88
2021/10/13 09:08:55;;;;;;;0.10;0.10;;;;;;;;;;5131838;28;20043;-89
2021/10/13 09:11:31;;;;;;;0.10;0.10;;;;;;;;;;5114724;28;20397;-89
2021/10/13 09:14:09;;;;;;;0.10;0.10;;;;;;;;;;5114680;28;20451;-89
2021/10/13 09:16:54;;;;;;;0.10;0.10;;;;;;;;;;5131858;28;20043;-88
2021/10/13 09:19:20;;;;;;;0.10;0.10;;;;;;;;;;5133318;27;20051;-89
2021/10/13 09:21:46;;;;;;;0.60;0.60;;;;;;;;;;5118582;27;20081;-88
2021/10/13 09:24:12;;;;;;;0.10;0.10;;;;;;;;;;5135531;27;20046;-88
2021/10/13 09:26:38;;;;;;;0.10;0.10;;;;;;;;;;5101736;27;20125;-89
2021/10/13 09:29:05;;;;;;;0.10;0.10;;;;;;;;;;5118599;27;20510;-89
2021/10/13 09:31:31;;;;;;;0.10;0.10;;;;;;;;;;5118305;27;20035;-89
2021/10/13 09:34:00;;;;;;;0.10;0.10;;;;;;;;;;5118758;27;20126;-89
2021/10/13 09:36:37;;;;;;;0.10;0.10;;;;;;;;;;5118690;27;20088;-89
2021/10/13 09:39:04;;;;;;;0.10;0.10;;;;;;;;;;5101307;27;20043;-89
2021/10/13 09:41:30;;;;;;;0.10;0.10;;;;;;;;;;5118318;27;20071;-89
2021/10/13 09:43:56;;;;;;;0.10;0.10;;;;;;;;;;5118403;27;20061;-89
2021/10/13 09:46:23;;;;;;;0.10;0.10;;;;;;;;;;5101313;27;20482;-89
2021/10/13 09:48:57;;;;;;;0.10;0.10;;;;;;;;;;5118001;27;20044;-89
2021/10/13 09:51:23;;;;;;;0.10;0.10;;;;;;;;;;5135067;27;20443;-89
2021/10/13 09:53:50;;;;;;;0.10;0.10;;;;;;;;;;5117842;27;20104;-88
2021/10/13 09:56:26;;;;;;;0.10;0.10;;;;;;;;;;5134901;27;20070;-89
2021/10/13 09:58:52;;;;;;;0.10;0.10;;;;;;;;;;5118008;27;20081;-89
2021/10/13 10:01:18;;;;;;;0.10;0.10;;;;;;;;;;5117885;27;20066;-89
2021/10/13 10:03:45;;;;;;;0.10;0.10;;;;;;;;;;5117976;27;20096;-88
2021/10/13 10:06:11;;;;;;;0.10;0.10;;;;;;;;;;5134949;27;20039;-89
2021/10/13 10:08:56;;;;;;;0.10;0.10;;;;;;;;;;5134986;27;20083;-89
2021/10/13 10:11:29;;;;;;;0.10;0.10;;;;;;;;;;5135000;27;20066;-88
2021/10/13 10:13:55;;;;;;;0.10;0.10;;;;;;;;;;5117714;27;20039;-89
2021/10/13 10:16:28;;;;;;;0.10;0.10;;;;;;;;;;5117733;27;20042;-89
2021/10/13 10:18:54;;;;;;;0.10;0.10;;;;;;;;;;5100571;27;20514;-90
2021/10/13 10:21:20;;;;;;;0.10;0.10;;;;;;;;;;5117905;27;20266;-89
2021/10/13 10:23:47;;;;;;;0.10;0.10;;;;;;;;;;5134396;27;20390;-89
2021/10/13 10:26:25;;;;;;;0.10;0.10;;;;;;;;;;5134436;27;20039;-89
2021/10/13 10:28:54;;;;;;;0.10;0.10;;;;;;;;;;5134515;27;20046;-89
2021/10/13 10:31:29;;;;;;;0.10;0.10;;;;;;;;;;5133878;27;20047;-89
2021/10/13 10:34:04;;;;;;;0.10;0.10;;;;;;;;;;5117285;27;20043;-89
2021/10/13 10:36:30;;;;;;;0.10;0.10;;;;;;;;;;5134189;27;20095;-89
2021/10/13 10:38:56;;;;;;;0.10;0.10;;;;;;;;;;5117242;27;20043;-89
2021/10/13 10:41:22;;;;;;;0.10;0.10;;;;;;;;;;5117143;27;20036;-89
2021/10/13 10:43:48;;;;;;;0.10;0.10;;;;;;;;;;5100490;27;20127;-89
2021/10/13 10:46:14;;;;;;;0.10;0.10;;;;;;;;;;5117054;27;20092;-89
2021/10/13 10:48:47;;;;;;;0.10;0.10;;;;;;;;;;5099949;27;20047;-88
2021/10/13 10:51:13;;;;;;;0.10;0.10;;;;;;;;;;5099932;27;20100;-89
2021/10/13 10:53:44;;;;;;;0.10;0.10;;;;;;;;;;5116936;27;20043;-88
2021/10/13 10:56:10;;;;;;;0.10;0.10;;;;;;;;;;5116925;27;20134;-89
2021/10/13 10:58:36;;;;;;;0.10;0.10;;;;;;;;;;5133521;27;20123;-89
2021/10/13 11:01:03;;;;;;;0.10;0.10;;;;;;;;;;5116763;27;20035;-89
2021/10/13 11:03:31;;;;;;;0.10;0.10;;;;;;;;;;5117155;27;20149;-89
2021/10/13 11:05:58;;;;;;;0.10;0.10;;;;;;;;;;5133687;27;20077;-89
2021/10/13 11:08:24;;;;;;;0.10;0.10;;;;;;;;;;5116504;27;20100;-89
2021/10/13 11:10:51;;;;;;;0.10;0.10;;;;;;;;;;5133865;27;20039;-89
2021/10/13 11:13:23;;;;;;;0.10;0.10;;;;;;;;;;5116599;27;20130;-89
2021/10/13 11:15:49;;;;;;;0.10;0.10;;;;;;;;;;5116777;27;20051;-89
2021/10/13 11:18:15;;;;;;;0.10;0.10;;;;;;;;;;5133481;27;20039;-88
2021/10/13 11:20:42;;;;;;;0.10;0.10;;;;;;;;;;5133790;27;20497;-89
2021/10/13 11:23:08;;;;;;;0.10;0.10;;;;;;;;;;5116696;27;20039;-89
2021/10/13 11:25:34;;;;;;;0.10;0.10;;;;;;;;;;5099596;27;20062;-89
2021/10/13 11:28:01;;;;;;;0.10;0.10;;;;;;;;;;5116304;27;20118;-89
2021/10/13 11:30:30;;;;;;;0.10;0.10;;;;;;;;;;5116092;27;20043;-89
2021/10/13 11:32:57;;;;;;;0.10;0.10;;;;;;;;;;5133223;27;20039;-89
2021/10/13 11:35:23;;;;;;;0.10;0.10;;;;;;;;;;5099167;27;20074;-89
2021/10/13 11:37:49;;;;;;;0.10;0.10;;;;;;;;;;5099065;27;20075;-89
2021/10/13 11:40:16;;;;;;;0.10;0.10;;;;;;;;;;5116059;27;20535;-88
2021/10/13 11:42:42;;;;;;;0.10;0.10;;;;;;;;;;5115245;27;20476;-89
2021/10/13 11:45:12;;;;;;;0.10;0.10;;;;;;;;;;5115868;27;20103;-89
2021/10/13 11:47:38;;;;;;;0.10;0.10;;;;;;;;;;5099019;27;20061;-89
2021/10/13 11:50:09;;;;;;;0.10;0.10;;;;;;;;;;5098881;27;20434;-89
2021/10/13 11:52:35;;;;;;;0.10;0.10;;;;;;;;;;5132926;27;20051;-89
2021/10/13 11:55:01;;;;;;;0.10;0.10;;;;;;;;;;5115372;27;20047;-89
2021/10/13 11:57:27;;;;;;;0.10;0.10;;;;;;;;;;5115488;27;20055;-89
2021/10/13 12:00:12;;;;;;;0.10;0.10;;;;;;;;;;5098692;27;20043;-89
2021/10/13 12:02:38;;;;;;;0.10;0.10;;;;;;;;;;5115571;27;20035;-89
2021/10/13 12:05:05;;;;;;;0.17;0.17;;;;;;;;;;5098820;27;20031;-89
2021/10/13 12:07:31;;;;;;;0.10;0.10;;;;;;;;;;5115525;27;20176;-89
2021/10/13 12:10:00;;;;;;;0.10;0.10;;;;;;;;;;5115466;27;20066;-89
2021/10/13 12:12:27;;;;;;;0.10;0.10;;;;;;;;;;5115456;27;20043;-89
2021/10/13 12:14:53;;;;;;;0.10;0.10;;;;;;;;;;5098244;27;20039;-89
2021/10/13 12:17:26;;;;;;;0.10;0.10;;;;;;;;;;5132477;27;20043;-90
2021/10/13 12:19:53;;;;;;;0.10;0.10;;;;;;;;;;5115112;27;20127;-88
2021/10/13 12:22:19;;;;;;;0.10;0.10;;;;;;;;;;5115098;27;20475;-89
2021/10/13 12:24:45;;;;;;;0.10;0.10;;;;;;;;;;5098353;27;20039;-89
2021/10/13 12:27:11;;;;;;;0.10;0.10;;;;;;;;;;5098547;28;20546;-89
2021/10/13 12:29:43;;;;;;;0.10;0.10;;;;;;;;;;5098228;27;20462;-89
2021/10/13 12:32:21;;;;;;;0.10;0.10;;;;;;;;;;5115383;27;20050;-89
2021/10/13 12:34:47;;;;;;;0.10;0.10;;;;;;;;;;5098067;27;20142;-89
2021/10/13 12:37:13;;;;;;;0.10;0.10;;;;;;;;;;5115297;27;20042;-89
2021/10/13 12:39:39;;;;;;;0.10;0.10;;;;;;;;;;5115052;27;20035;-88
2021/10/13 12:42:09;;;;;;;0.10;0.10;;;;;;;;;;5131980;27;20050;-89
2021/10/13 12:44:35;;;;;;;0.10;0.10;;;;;;;;;;5114892;27;20491;-89
2021/10/13 12:47:02;;;;;;;0.10;0.10;;;;;;;;;;5115071;27;20061;-89
2021/10/13 12:49:31;;;;;;;0.10;0.10;;;;;;;;;;5115207;27;20039;-88
2021/10/13 12:52:02;;;;;;;0.10;0.10;;;;;;;;;;5114694;28;20042;-89
2021/10/13 12:54:34;;;;;;;0.10;0.10;;;;;;;;;;5097771;27;20031;-89
2021/10/13 12:57:00;;;;;;;0.10;0.10;;;;;;;;;;5114336;28;20050;-89
2021/10/13 12:59:27;;;;;;;0.10;0.10;;;;;;;;;;5114727;28;20093;-88
2021/10/13 13:01:53;;;;;;;0.10;0.10;;;;;;;;;;5114525;27;20184;-89
2021/10/13 13:04:19;;;;;;;0.10;0.10;;;;;;;;;;5131784;27;20197;-89
2021/10/13 13:06:45;;;;;;;0.10;0.10;;;;;;;;;;5115059;28;20046;-88
2021/10/13 13:09:11;;;;;;;0.10;0.10;;;;;;;;;;5114686;28;20035;-90
2021/10/13 13:11:37;;;;;;;0.10;0.10;;;;;;;;;;5131761;28;20071;-89
2021/10/13 13:14:03;;;;;;;0.10;0.10;;;;;;;;;;5114621;28;20035;-90
2021/10/13 13:16:29;;;;;;;0.10;0.10;;;;;;;;;;5097796;27;20031;-88
2021/10/13 13:18:55;;;;;;;0.10;0.10;;;;;;;;;;5097644;28;20042;-89
2021/10/13 13:21:21;;;;;;;0.10;0.10;;;;;;;;;;5131663;27;20035;-88
2021/10/13 13:23:47;;;;;;;0.10;0.10;;;;;;;;;;5097622;28;20352;-89
2021/10/13 13:26:13;;;;;;;0.10;0.10;;;;;;;;;;5114366;28;20043;-88
2021/10/13 13:28:39;;;;;;;0.25;0.25;;;;;;;;;;5097480;28;20046;-89
2021/10/13 13:31:05;;;;;;;0.10;0.10;;;;;;;;;;5114218;27;20095;-88
2021/10/13 13:33:34;;;;;;;0.20;0.20;;;;;;;;;;5114817;28;20045;-89
2021/10/13 13:36:00;;;;;;;0.10;0.10;;;;;;;;;;5131720;28;20121;-88
2021/10/13 13:38:26;;;;;;;0.10;0.10;;;;;;;;;;5114158;28;20184;-89
2021/10/13 13:40:52;;;;;;;0.10;0.10;;;;;;;;;;5114374;28;20043;-89
2021/10/13 13:43:18;;;;;;;0.13;0.13;;;;;;;;;;5114600;28;20031;-89
2021/10/13 13:45:45;;;;;;;0.10;0.10;;;;;;;;;;5114204;28;20043;-89
2021/10/13 13:48:11;;;;;;;0.10;0.10;;;;;;;;;;5114153;28;20513;-88
2021/10/13 13:50:37;;;;;;;0.10;0.10;;;;;;;;;;5097698;28;20063;-88
2021/10/13 13:53:03;;;;;;;0.32;0.32;;;;;;;;;;5114352;28;20538;-89
2021/10/13 13:55:29;;;;;;;0.10;0.10;;;;;;;;;;5131121;28;20058;-89
2021/10/13 13:57:55;;;;;;;0.10;0.10;;;;;;;;;;5114052;28;20417;-89
2021/10/13 14:00:21;;;;;;;0.10;0.10;;;;;;;;;;5114121;27;20141;-89
2021/10/13 14:02:47;;;;;;;0.10;0.10;;;;;;;;;;5097262;28;20402;-89
2021/10/13 14:05:13;;;;;;;0.10;0.10;;;;;;;;;;5115652;27;20206;-89
2021/10/13 14:07:39;;;;;;;0.10;0.10;;;;;;;;;;5118388;27;20087;-89
2021/10/13 14:10:05;;;;;;;3.20;0.52;;;;;;;;;;5136860;27;20046;-89
2021/10/13 14:12:31;;;;;;;0.13;0.13;;;;;;;;;;5119839;27;20050;-89
2021/10/13 14:14:57;;;;;;;0.10;0.10;;;;;;;;;;5120606;27;20410;-89
2021/10/13 14:17:23;;;;;;;0.10;0.10;;;;;;;;;;5137809;27;20055;-89
2021/10/13 14:19:49;;;;;;;0.10;0.10;;;;;;;;;;5154771;27;20518;-88
2021/10/13 14:22:15;;;;;;;0.10;0.10;;;;;;;;;;5117607;27;20072;-88
2021/10/13 14:24:41;;;;;;;0.10;0.10;;;;;;;;;;5117237;27;20031;-89
2021/10/13 14:27:08;;;;;;;0.10;0.10;;;;;;;;;;5117327;27;20039;-88
2021/10/13 14:29:34;;;;;;;0.10;0.10;;;;;;;;;;5134274;27;20043;-88
2021/10/13 14:32:00;;;;;;;0.10;0.10;;;;;;;;;;5134662;27;20043;-88
2021/10/13 14:34:26;;;;;;;0.10;0.10;;;;;;;;;;5117337;27;20445;-89
2021/10/13 14:36:52;;;;;;;0.10;0.10;;;;;;;;;;5103044;27;20042;-87
2021/10/13 14:39:18;;;;;;;0.10;0.10;;;;;;;;;;5137807;27;20073;-89
2021/10/13 14:41:44;;;;;;;0.10;0.10;;;;;;;;;;5136842;27;20393;-89